Time;durP1;ratioP1;P1;durP2;ratioP2;P2;SDS_P1;SDS_P2;PMS_P1;PMS_P2;Temp;Humidity;BMP_temperature;BMP_pressure;BME280_temperature;BME280_humidity;BME280_pressure;Samples;Min_cycle;Max_cycle;Signal;HPM_P1;HPM_P2
2023/05/03 00:00:12;;;;;;;3.17;1.30;;;7.30;99.90;;;;;;4996031;28;20065;-76
2023/05/03 00:02:38;;;;;;;3.53;1.45;;;7.10;99.90;;;;;;5012754;28;20470;-77
2023/05/03 00:05:08;;;;;;;2.88;1.30;;;7.10;99.90;;;;;;5012856;28;20064;-76
2023/05/03 00:07:34;;;;;;;2.03;1.15;;;7.00;99.90;;;;;;5012834;28;20052;-77
2023/05/03 00:10:00;;;;;;;4.55;1.20;;;7.30;99.90;;;;;;5016725;28;20041;-76
2023/05/03 00:12:25;;;;;;;1.77;1.17;;;7.30;99.90;;;;;;5016341;28;20061;-76
2023/05/03 00:14:51;;;;;;;3.75;1.27;;;7.30;99.90;;;;;;5017605;28;20104;-76
2023/05/03 00:17:17;;;;;;;2.05;1.25;;;7.00;99.90;;;;;;5016395;28;20045;-76
2023/05/03 00:19:42;;;;;;;3.65;1.25;;;7.10;99.90;;;;;;5017542;28;20073;-76
2023/05/03 00:22:08;;;;;;;2.47;1.17;;;7.20;99.90;;;;;;5016507;28;20528;-76
2023/05/03 00:24:34;;;;;;;2.85;1.10;;;7.10;99.90;;;;;;5017427;28;20073;-76
2023/05/03 00:27:00;;;;;;;2.35;1.20;;;7.60;99.90;;;;;;5017365;28;20046;-76
2023/05/03 00:29:26;;;;;;;2.70;1.30;;;7.10;99.90;;;;;;5016379;28;20052;-76
2023/05/03 00:31:52;;;;;;;4.30;1.10;;;7.10;99.90;;;;;;5016303;28;20057;-76
2023/05/03 00:34:17;;;;;;;3.05;1.08;;;7.40;99.90;;;;;;5017381;28;20099;-76
2023/05/03 00:36:43;;;;;;;3.25;1.10;;;7.60;99.90;;;;;;5017539;28;20126;-76
2023/05/03 00:39:10;;;;;;;2.97;1.02;;;7.40;99.90;;;;;;5018033;28;20069;-76
2023/05/03 00:41:36;;;;;;;3.28;1.27;;;7.10;99.90;;;;;;5017734;28;20432;-76
2023/05/03 00:47:43;;;;;;;4.10;1.15;;;7.20;99.90;;;;;;5219597;23;20150;-74
2023/05/03 00:50:10;;;;;;;2.35;0.98;;;7.30;99.90;;;;;;4993478;28;20054;-75
2023/05/03 00:52:38;;;;;;;3.63;1.05;;;7.30;99.90;;;;;;4996901;28;20564;-75
2023/05/03 00:55:04;;;;;;;4.00;1.00;;;7.30;99.90;;;;;;4995936;28;20054;-74
2023/05/03 00:57:30;;;;;;;3.65;1.00;;;7.30;99.90;;;;;;4996854;28;20129;-75
2023/05/03 00:59:57;;;;;;;1.83;0.90;;;7.30;99.90;;;;;;4979907;28;20146;-75
2023/05/03 01:02:23;;;;;;;3.08;1.08;;;7.30;99.90;;;;;;4995816;28;20046;-75
2023/05/03 01:04:51;;;;;;;4.03;1.27;;;7.40;99.90;;;;;;4979780;28;20457;-75
2023/05/03 01:07:29;;;;;;;2.60;1.00;;;7.40;99.90;;;;;;4996884;28;20470;-75
2023/05/03 01:10:28;;;;;;;1.65;0.90;;;7.40;99.90;;;;;;4995552;28;20451;-75
2023/05/03 01:12:59;;;;;;;1.55;1.00;;;7.40;99.90;;;;;;4996775;28;20046;-76
2023/05/03 01:15:30;;;;;;;2.38;0.95;;;7.50;99.90;;;;;;4996474;28;20483;-76
2023/05/03 01:18:02;;;;;;;3.13;1.17;;;7.40;99.90;;;;;;4996126;28;20073;-75
2023/05/03 01:20:30;;;;;;;4.50;1.30;;;7.60;99.90;;;;;;4994796;28;20495;-75
2023/05/03 01:23:05;;;;;;;3.10;1.20;;;7.60;99.90;;;;;;5013466;28;20116;-76
2023/05/03 01:25:31;;;;;;;3.45;1.20;;;7.50;99.90;;;;;;5015009;28;20088;-76
2023/05/03 01:27:57;;;;;;;2.13;1.25;;;7.60;99.90;;;;;;5016164;28;20053;-76
2023/05/03 01:30:25;;;;;;;3.35;1.27;;;7.80;99.90;;;;;;5015921;28;20329;-75
2023/05/03 01:33:12;;;;;;;3.22;1.00;;;7.60;99.90;;;;;;4998539;28;20045;-75
2023/05/03 01:35:49;;;;;;;2.03;1.20;;;7.60;99.90;;;;;;5015924;28;20045;-75
2023/05/03 01:38:16;;;;;;;3.35;1.25;;;7.60;99.90;;;;;;5015102;28;20049;-75
2023/05/03 01:40:51;;;;;;;2.85;1.10;;;7.60;99.90;;;;;;5014611;28;20042;-75
2023/05/03 01:43:18;;;;;;;5.03;1.40;;;7.60;99.90;;;;;;5015671;28;20048;-76
2023/05/03 01:45:45;;;;;;;3.53;1.30;;;7.80;99.90;;;;;;5014600;28;20486;-75
2023/05/03 01:48:14;;;;;;;3.00;1.20;;;7.90;99.90;;;;;;4997511;28;20089;-76
2023/05/03 01:50:40;;;;;;;4.25;1.30;;;7.70;99.90;;;;;;5014966;28;20129;-76
2023/05/03 01:53:05;;;;;;;3.50;1.50;;;7.90;99.90;;;;;;5014729;28;20160;-75
2023/05/03 01:55:31;;;;;;;3.72;1.60;;;7.60;99.90;;;;;;5016018;28;20117;-76
2023/05/03 01:57:57;;;;;;;2.45;1.10;;;7.60;99.90;;;;;;5021593;28;20108;-76
2023/05/03 02:00:23;;;;;;;3.00;1.23;;;7.70;99.90;;;;;;5024710;28;20050;-76
2023/05/03 02:02:51;;;;;;;4.55;1.30;;;7.70;99.90;;;;;;5017854;28;20034;-75
2023/05/03 02:05:17;;;;;;;2.08;1.30;;;7.50;99.90;;;;;;5015440;28;20041;-76
2023/05/03 02:07:43;;;;;;;2.30;1.10;;;7.90;99.90;;;;;;5014158;28;20061;-76
2023/05/03 02:10:13;;;;;;;2.95;1.30;;;7.90;99.90;;;;;;5015142;28;20406;-75
2023/05/03 02:12:40;;;;;;;2.53;1.10;;;7.60;99.90;;;;;;5015094;28;20083;-75
2023/05/03 02:15:07;;;;;;;3.38;1.20;;;7.60;99.90;;;;;;5015163;28;20053;-76
2023/05/03 02:17:33;;;;;;;1.85;1.20;;;7.60;99.90;;;;;;5014702;28;20050;-75
2023/05/03 02:19:59;;;;;;;2.90;1.10;;;7.90;99.90;;;;;;5015327;28;20056;-75
2023/05/03 02:22:25;;;;;;;4.68;1.30;;;7.60;99.90;;;;;;5014882;28;20509;-76
2023/05/03 02:24:51;;;;;;;3.72;1.30;;;7.70;99.90;;;;;;5014988;28;20046;-75
2023/05/03 02:27:17;;;;;;;1.85;1.27;;;7.90;99.90;;;;;;5013817;28;20081;-75
2023/05/03 02:29:43;;;;;;;3.58;1.30;;;7.60;99.90;;;;;;5013933;28;20053;-75
2023/05/03 02:32:08;;;;;;;4.63;1.50;;;8.00;99.90;;;;;;5014285;28;20045;-75
2023/05/03 02:34:35;;;;;;;2.65;1.15;;;7.70;99.90;;;;;;5014790;28;20042;-76
2023/05/03 02:37:01;;;;;;;5.05;1.27;;;7.60;99.90;;;;;;5014695;28;20042;-75
2023/05/03 02:39:28;;;;;;;3.78;1.40;;;7.60;99.90;;;;;;5013449;28;20504;-75
2023/05/03 02:41:53;;;;;;;2.78;1.10;;;7.70;99.90;;;;;;5014551;28;20057;-75
2023/05/03 02:44:19;;;;;;;2.05;1.23;;;7.60;99.90;;;;;;5013964;28;20402;-75
2023/05/03 02:46:45;;;;;;;4.45;1.33;;;7.80;99.90;;;;;;5013682;28;20046;-75
2023/05/03 02:49:10;;;;;;;3.22;1.10;;;7.60;99.90;;;;;;5012474;28;20054;-76
2023/05/03 02:51:36;;;;;;;3.97;0.98;;;7.90;99.90;;;;;;5014403;28;20052;-75
2023/05/03 02:54:02;;;;;;;2.20;1.20;;;7.60;99.90;;;;;;5014263;28;20084;-75
2023/05/03 02:56:27;;;;;;;3.03;1.40;;;7.60;99.90;;;;;;5013176;28;20073;-74
2023/05/03 02:58:54;;;;;;;3.47;1.27;;;7.50;99.90;;;;;;5014119;28;20144;-74
2023/05/03 03:01:20;;;;;;;2.28;1.15;;;7.50;99.90;;;;;;5014352;28;20088;-74
2023/05/03 03:03:47;;;;;;;2.85;1.17;;;7.80;99.90;;;;;;5013177;28;20121;-74
2023/05/03 03:06:13;;;;;;;2.00;1.10;;;8.70;99.90;;;;;;5014162;28;20049;-75
2023/05/03 03:08:38;;;;;;;1.88;1.02;;;7.60;99.90;;;;;;5013144;28;20142;-74
2023/05/03 03:11:05;;;;;;;3.88;1.33;;;7.70;99.90;;;;;;5013903;28;20057;-74
2023/05/03 03:13:31;;;;;;;2.92;0.95;;;7.70;99.90;;;;;;5014182;28;20501;-74
2023/05/03 03:15:57;;;;;;;2.58;0.90;;;7.60;99.90;;;;;;5013295;28;20050;-74
2023/05/03 03:18:22;;;;;;;2.53;0.90;;;7.60;99.90;;;;;;5013459;28;20053;-74
2023/05/03 03:20:48;;;;;;;2.75;0.90;;;7.70;99.90;;;;;;5012760;28;20050;-74
2023/05/03 03:23:14;;;;;;;2.35;1.27;;;7.70;99.90;;;;;;5013443;28;20402;-74
2023/05/03 03:25:41;;;;;;;3.47;1.00;;;7.70;99.90;;;;;;5012873;28;20057;-74
2023/05/03 03:28:07;;;;;;;3.47;1.00;;;7.70;99.90;;;;;;5014414;28;20433;-74
2023/05/03 03:30:33;;;;;;;2.25;0.80;;;7.70;99.90;;;;;;4996607;28;20096;-75
2023/05/03 03:32:58;;;;;;;2.90;1.30;;;7.60;99.90;;;;;;5014111;28;20053;-75
2023/05/03 03:35:24;;;;;;;1.45;1.13;;;7.90;99.90;;;;;;5012927;28;20478;-76
2023/05/03 03:37:50;;;;;;;1.10;0.80;;;7.70;99.90;;;;;;4996537;28;20108;-75
2023/05/03 03:40:16;;;;;;;3.38;1.30;;;7.80;99.90;;;;;;4996241;28;20489;-75
2023/05/03 03:42:42;;;;;;;2.42;0.85;;;7.70;99.90;;;;;;5013987;28;20062;-75
2023/05/03 03:45:08;;;;;;;2.45;0.80;;;7.70;99.90;;;;;;5013762;28;20053;-76
2023/05/03 03:47:34;;;;;;;4.22;1.10;;;7.70;99.90;;;;;;5012954;28;20153;-75
2023/05/03 03:50:03;;;;;;;2.47;1.27;;;7.70;99.90;;;;;;5013788;28;20084;-75
2023/05/03 03:52:29;;;;;;;4.70;1.08;;;7.90;99.90;;;;;;5013661;28;20042;-75
2023/05/03 03:54:56;;;;;;;1.95;1.15;;;7.70;99.90;;;;;;5013802;28;20052;-75
2023/05/03 03:57:23;;;;;;;1.95;1.10;;;7.70;99.90;;;;;;5014294;28;20077;-75
2023/05/03 03:59:50;;;;;;;2.00;1.02;;;7.60;99.90;;;;;;5023786;28;20149;-75
2023/05/03 04:02:15;;;;;;;2.25;1.10;;;7.50;99.90;;;;;;5013952;28;20425;-75
2023/05/03 04:04:41;;;;;;;2.03;1.35;;;7.60;99.90;;;;;;5012102;28;20041;-75
2023/05/03 04:07:08;;;;;;;1.50;1.20;;;7.50;99.90;;;;;;5013563;28;20128;-76
2023/05/03 04:09:34;;;;;;;2.25;1.38;;;7.70;99.90;;;;;;5013472;28;20127;-75
2023/05/03 04:12:01;;;;;;;3.25;1.27;;;7.70;99.90;;;;;;5014060;28;20085;-75
2023/05/03 04:14:27;;;;;;;1.55;1.05;;;7.30;99.90;;;;;;4995954;28;20056;-74
2023/05/03 04:16:53;;;;;;;2.25;0.98;;;7.30;99.90;;;;;;5012428;28;20054;-74
2023/05/03 04:19:20;;;;;;;3.75;1.17;;;7.50;99.90;;;;;;5012761;28;20459;-75
2023/05/03 04:21:46;;;;;;;2.30;1.35;;;7.20;99.90;;;;;;5011894;28;20409;-75
2023/05/03 04:24:14;;;;;;;3.72;1.13;;;7.40;99.90;;;;;;5013510;28;20038;-75
2023/05/03 04:26:41;;;;;;;3.53;1.30;;;7.10;99.90;;;;;;5013321;28;20121;-75
2023/05/03 04:29:08;;;;;;;1.77;1.20;;;7.30;99.90;;;;;;5013273;28;20050;-75
2023/05/03 04:31:33;;;;;;;2.83;1.45;;;7.00;99.90;;;;;;5013386;28;20054;-75
2023/05/03 04:33:59;;;;;;;3.58;1.17;;;7.30;99.90;;;;;;5013031;28;20038;-75
2023/05/03 04:36:28;;;;;;;2.80;1.27;;;7.00;99.90;;;;;;5013107;28;20138;-75
2023/05/03 04:38:54;;;;;;;2.60;1.25;;;7.20;99.90;;;;;;5013276;28;20058;-75
2023/05/03 04:41:21;;;;;;;1.50;1.15;;;7.10;99.90;;;;;;5012319;28;20042;-75
2023/05/03 04:43:47;;;;;;;2.25;1.20;;;7.30;99.90;;;;;;5013244;28;20050;-75
2023/05/03 04:46:12;;;;;;;3.47;1.42;;;7.10;99.90;;;;;;5013030;28;20052;-75
2023/05/03 04:48:38;;;;;;;2.08;1.25;;;7.10;99.90;;;;;;5012758;28;20116;-75
2023/05/03 04:51:04;;;;;;;2.95;1.50;;;7.30;99.90;;;;;;5012849;28;20410;-75
2023/05/03 04:53:30;;;;;;;1.85;1.23;;;7.10;99.90;;;;;;4995904;28;20500;-75
2023/05/03 04:55:56;;;;;;;1.67;1.17;;;7.30;99.90;;;;;;4999556;28;20054;-75
2023/05/03 04:58:21;;;;;;;2.30;1.20;;;7.20;99.90;;;;;;5000323;28;20108;-75
2023/05/03 05:00:47;;;;;;;3.08;1.27;;;7.50;99.90;;;;;;5019083;28;20398;-74
2023/05/03 05:03:13;;;;;;;2.33;1.38;;;7.20;99.90;;;;;;5019579;28;20057;-74
2023/05/03 05:05:39;;;;;;;3.90;1.33;;;7.30;99.90;;;;;;5015326;28;20164;-74
2023/05/03 05:08:05;;;;;;;2.42;1.23;;;7.50;99.90;;;;;;5016326;28;20049;-75
2023/05/03 05:10:31;;;;;;;2.55;1.30;;;7.70;99.90;;;;;;5015485;28;20057;-74
2023/05/03 05:12:57;;;;;;;3.90;1.65;;;7.60;99.90;;;;;;5015267;28;20085;-75
2023/05/03 05:15:22;;;;;;;2.00;1.17;;;7.50;99.90;;;;;;5015299;28;20376;-75
2023/05/03 05:17:48;;;;;;;2.35;1.40;;;7.50;99.90;;;;;;5014387;28;20489;-75
2023/05/03 05:20:14;;;;;;;3.20;1.13;;;7.70;99.90;;;;;;5014664;28;20049;-75
2023/05/03 05:22:40;;;;;;;2.97;1.30;;;7.60;99.90;;;;;;4999060;28;20057;-75
2023/05/03 05:25:07;;;;;;;1.95;1.10;;;7.70;99.90;;;;;;5016072;28;20402;-75
2023/05/03 05:27:33;;;;;;;2.67;1.42;;;7.80;99.90;;;;;;5014850;28;20046;-74
2023/05/03 05:30:03;;;;;;;1.73;0.95;;;7.80;99.90;;;;;;5014853;28;20056;-74
2023/05/03 05:32:29;;;;;;;1.80;1.00;;;7.80;99.90;;;;;;5016105;28;20112;-74
2023/05/03 05:34:54;;;;;;;2.47;1.05;;;7.80;99.90;;;;;;5015668;28;20045;-75
2023/05/03 05:37:24;;;;;;;1.50;1.08;;;7.90;99.90;;;;;;5015920;28;20394;-74
2023/05/03 05:39:50;;;;;;;3.00;1.17;;;7.90;99.90;;;;;;5014831;28;20076;-74
2023/05/03 05:42:16;;;;;;;3.05;1.30;;;7.90;99.90;;;;;;4998238;28;20049;-75
2023/05/03 05:44:42;;;;;;;2.47;1.20;;;8.10;99.90;;;;;;5014627;28;20041;-74
2023/05/03 05:47:09;;;;;;;1.50;1.20;;;8.20;99.90;;;;;;5014204;28;20053;-74
2023/05/03 05:49:35;;;;;;;2.65;1.23;;;8.00;99.90;;;;;;5014812;28;20418;-74
2023/05/03 05:52:01;;;;;;;2.13;1.17;;;8.00;99.90;;;;;;5015403;28;20060;-75
2023/05/03 05:54:26;;;;;;;2.78;1.27;;;8.10;99.90;;;;;;5014351;28;20088;-75
2023/05/03 05:56:52;;;;;;;2.63;1.10;;;7.90;99.90;;;;;;5014153;28;20052;-75
2023/05/03 05:59:19;;;;;;;2.08;1.20;;;8.40;99.90;;;;;;5015558;28;20042;-75
2023/05/03 06:01:45;;;;;;;2.05;1.05;;;8.20;99.90;;;;;;5014279;28;20129;-75
2023/05/03 06:04:14;;;;;;;1.13;0.93;;;8.30;99.90;;;;;;5014239;28;20038;-75
2023/05/03 06:06:41;;;;;;;2.45;1.00;;;8.50;99.90;;;;;;5014454;28;20089;-74
2023/05/03 06:09:07;;;;;;;1.73;0.88;;;8.20;99.90;;;;;;5013952;28;20482;-75
2023/05/03 06:11:33;;;;;;;2.25;0.80;;;8.30;99.90;;;;;;5015302;28;20050;-75
2023/05/03 06:13:59;;;;;;;2.95;0.90;;;8.30;99.90;;;;;;4998045;28;20438;-75
2023/05/03 06:16:25;;;;;;;2.13;0.70;;;8.40;99.90;;;;;;5014914;28;20076;-74
2023/05/03 06:18:51;;;;;;;5.10;0.90;;;8.40;99.90;;;;;;5013449;28;20480;-74
2023/05/03 06:21:17;;;;;;;1.67;1.20;;;8.40;99.90;;;;;;4997753;28;20045;-75
2023/05/03 06:23:43;;;;;;;2.47;1.17;;;8.40;99.90;;;;;;4997832;28;20046;-75
2023/05/03 06:26:11;;;;;;;1.98;1.00;;;8.40;99.90;;;;;;5014819;28;20403;-75
2023/05/03 06:28:37;;;;;;;2.58;1.23;;;8.50;99.90;;;;;;5014787;28;20053;-75
2023/05/03 06:31:02;;;;;;;4.00;0.90;;;8.80;99.90;;;;;;5013493;28;20045;-74
2023/05/03 06:33:28;;;;;;;2.20;1.10;;;8.50;99.90;;;;;;5014616;28;20588;-74
2023/05/03 06:35:55;;;;;;;2.92;1.30;;;8.60;99.90;;;;;;5014645;28;20038;-75
2023/05/03 06:38:21;;;;;;;1.52;1.10;;;8.60;99.90;;;;;;5013789;28;20046;-75
2023/05/03 06:40:47;;;;;;;2.78;1.30;;;8.80;99.90;;;;;;5013493;28;20406;-74
2023/05/03 06:43:13;;;;;;;2.83;0.85;;;8.70;99.90;;;;;;5014620;28;20053;-74
2023/05/03 06:45:41;;;;;;;3.97;1.02;;;8.70;99.90;;;;;;5014467;28;20050;-75
2023/05/03 06:48:07;;;;;;;2.17;0.90;;;8.70;99.90;;;;;;5012805;28;20093;-74
2023/05/03 06:50:33;;;;;;;2.88;0.90;;;8.80;99.90;;;;;;5014480;28;20052;-75
2023/05/03 06:52:59;;;;;;;2.63;1.00;;;8.80;99.90;;;;;;5014425;28;20046;-74
2023/05/03 06:55:24;;;;;;;3.45;1.15;;;9.00;99.90;;;;;;5014456;28;20042;-74
2023/05/03 06:57:51;;;;;;;1.55;0.82;;;8.90;99.90;;;;;;5013402;28;20505;-74
2023/05/03 07:00:18;;;;;;;1.52;0.70;;;8.90;99.90;;;;;;4996850;28;20058;-74
2023/05/03 07:02:44;;;;;;;3.53;0.80;;;8.90;99.90;;;;;;5014310;28;20050;-74
2023/05/03 07:05:10;;;;;;;2.70;0.70;;;9.00;99.90;;;;;;4996807;28;20045;-74
2023/05/03 07:07:36;;;;;;;2.22;1.08;;;9.00;99.90;;;;;;5014322;28;20056;-73
2023/05/03 07:10:02;;;;;;;4.20;1.00;;;9.30;99.90;;;;;;5014168;28;20139;-73
2023/05/03 07:12:28;;;;;;;1.25;0.80;;;9.00;99.90;;;;;;4997005;28;20050;-73
2023/05/03 07:14:54;;;;;;;3.42;0.82;;;9.10;99.90;;;;;;4996806;28;20052;-73
2023/05/03 07:17:20;;;;;;;1.98;0.80;;;9.10;99.90;;;;;;5014345;28;20128;-73
2023/05/03 07:19:49;;;;;;;1.30;0.80;;;9.30;99.90;;;;;;5014212;28;20054;-73
2023/05/03 07:22:16;;;;;;;0.93;0.73;;;9.20;99.90;;;;;;5012823;28;20045;-73
2023/05/03 07:24:41;;;;;;;2.47;0.93;;;9.30;99.90;;;;;;5014311;28;20130;-73
2023/05/03 07:27:07;;;;;;;2.92;1.63;;;9.20;99.90;;;;;;5013871;28;20124;-73
2023/05/03 07:29:33;;;;;;;1.00;0.80;;;9.30;99.90;;;;;;5013747;28;20466;-72
2023/05/03 07:31:59;;;;;;;1.30;0.70;;;9.30;99.90;;;;;;5012645;28;20057;-72
2023/05/03 07:34:25;;;;;;;1.95;0.80;;;9.30;99.90;;;;;;4996316;28;20544;-72
2023/05/03 07:36:51;;;;;;;3.50;0.82;;;9.30;99.90;;;;;;5013770;28;20050;-72
2023/05/03 07:39:17;;;;;;;2.88;0.90;;;9.20;99.90;;;;;;5013608;28;20056;-71
2023/05/03 07:41:44;;;;;;;2.85;0.80;;;9.30;99.90;;;;;;5013576;28;20064;-70
2023/05/03 07:44:09;;;;;;;1.40;0.60;;;9.30;99.90;;;;;;5012206;28;20042;-72
2023/05/03 07:46:35;;;;;;;2.80;0.80;;;9.30;99.90;;;;;;5012576;28;20042;-73
2023/05/03 07:49:04;;;;;;;1.35;0.60;;;9.30;99.90;;;;;;5011931;28;20502;-74
2023/05/03 07:51:37;;;;;;;2.35;0.90;;;9.40;99.90;;;;;;5013669;28;20077;-74
2023/05/03 07:54:03;;;;;;;;;;;9.40;99.90;;;;;;4987343;28;20050;-73
2023/05/03 07:56:29;;;;;;;4.15;1.05;;;9.50;99.90;;;;;;4985319;28;19975;-73
2023/05/03 07:58:56;;;;;;;2.22;0.70;;;9.50;99.90;;;;;;4985803;28;20050;-74
2023/05/03 08:01:22;;;;;;;2.08;0.77;;;9.50;99.90;;;;;;4967736;28;20046;-72
2023/05/03 08:03:51;;;;;;;3.88;0.80;;;9.60;99.90;;;;;;4983006;28;20405;-72
2023/05/03 08:06:17;;;;;;;1.92;0.60;;;9.60;99.90;;;;;;4968611;28;20054;-73
2023/05/03 08:08:43;;;;;;;2.40;0.70;;;9.60;99.90;;;;;;4983763;28;20458;-73
2023/05/03 08:11:10;;;;;;;1.48;0.70;;;9.60;99.90;;;;;;4981989;28;20042;-73
2023/05/03 08:13:36;;;;;;;2.08;0.80;;;9.60;99.90;;;;;;4983820;28;20108;-73
2023/05/03 08:16:02;;;;;;;1.15;0.70;;;9.70;99.90;;;;;;4983413;28;20043;-73
2023/05/03 08:18:28;;;;;;;1.10;0.60;;;9.70;99.90;;;;;;4965798;28;20042;-73
2023/05/03 08:20:54;;;;;;;3.08;0.70;;;9.70;99.90;;;;;;4967908;28;20145;-73
2023/05/03 08:23:20;;;;;;;2.40;0.80;;;9.70;99.90;;;;;;4966239;28;20034;-73
2023/05/03 08:25:47;;;;;;;3.33;0.68;;;9.80;99.90;;;;;;4982032;28;20478;-74
2023/05/03 08:28:13;;;;;;;2.05;0.68;;;9.90;99.90;;;;;;4984575;28;20076;-73
2023/05/03 08:30:40;;;;;;;2.15;0.60;;;10.00;99.90;;;;;;4986466;28;20118;-73
2023/05/03 08:33:08;;;;;;;0.93;0.55;;;10.00;99.90;;;;;;4987379;28;20050;-73
2023/05/03 08:35:34;;;;;;;1.02;0.60;;;10.10;99.90;;;;;;4970891;28;20077;-73
2023/05/03 08:38:00;;;;;;;1.25;0.60;;;10.10;99.90;;;;;;4986787;28;20415;-73
2023/05/03 08:40:27;;;;;;;1.48;0.55;;;10.20;99.90;;;;;;4990354;28;20034;-72
2023/05/03 08:42:55;;;;;;;1.60;0.75;;;10.20;99.90;;;;;;4986737;28;20505;-73
2023/05/03 08:45:22;;;;;;;1.52;0.57;;;10.30;99.90;;;;;;4986154;28;20089;-73
2023/05/03 08:47:53;;;;;;;1.00;0.60;;;10.30;99.90;;;;;;4985745;28;20086;-74
2023/05/03 08:50:20;;;;;;;1.67;0.50;;;10.40;99.90;;;;;;4984792;28;20086;-73
2023/05/03 08:52:46;;;;;;;0.60;0.50;;;10.40;99.90;;;;;;4986763;28;20044;-73
2023/05/03 08:55:12;;;;;;;3.63;0.60;;;10.40;99.90;;;;;;4970265;28;20470;-72
2023/05/03 08:57:38;;;;;;;2.60;0.50;;;10.40;99.90;;;;;;4986386;28;20044;-74
2023/05/03 09:00:09;;;;;;;0.70;0.50;;;10.50;99.90;;;;;;4986692;28;20411;-75
2023/05/03 09:02:37;;;;;;;1.08;0.50;;;10.40;99.90;;;;;;4985710;28;20046;-73
2023/05/03 09:05:25;;;;;;;2.08;0.47;;;10.40;99.90;;;;;;4985573;28;20130;-74
2023/05/03 09:08:12;;;;;;;2.67;0.73;;;10.40;99.90;;;;;;4976999;28;20891;-73
2023/05/03 09:10:41;;;;;;;1.50;0.70;;;10.40;99.90;;;;;;4987064;28;20070;-73
2023/05/03 09:13:08;;;;;;;2.95;0.47;;;10.40;99.90;;;;;;4984781;28;20388;-73
2023/05/03 09:15:34;;;;;;;2.47;0.60;;;10.50;99.90;;;;;;4986879;28;20084;-73
2023/05/03 09:18:20;;;;;;;1.48;0.90;;;10.50;99.90;;;;;;4967718;28;20500;-74
2023/05/03 09:20:50;;;;;;;2.67;0.77;;;10.60;99.90;;;;;;4986677;28;20050;-73
2023/05/03 09:23:25;;;;;;;1.65;0.60;;;10.60;99.90;;;;;;4984208;28;20050;-72
2023/05/03 09:25:51;;;;;;;1.65;0.52;;;10.50;99.90;;;;;;4985998;28;20050;-73
2023/05/03 09:28:20;;;;;;;1.10;0.57;;;10.50;99.90;;;;;;4984341;28;20123;-72
2023/05/03 09:30:47;;;;;;;1.50;0.60;;;10.50;99.90;;;;;;4984543;28;20557;-73
2023/05/03 09:33:21;;;;;;;2.60;0.65;;;10.50;99.90;;;;;;4985991;28;20078;-73
2023/05/03 09:36:03;;;;;;;1.58;0.60;;;10.10;99.90;;;;;;4984016;28;20034;-73
2023/05/03 09:38:32;;;;;;;1.52;0.60;;;10.50;99.90;;;;;;4986105;28;20125;-72
2023/05/03 09:40:58;;;;;;;1.98;0.60;;;10.60;99.90;;;;;;4983010;28;20353;-72
2023/05/03 09:43:24;;;;;;;2.40;0.70;;;10.60;99.90;;;;;;4985469;28;20053;-73
2023/05/03 09:45:50;;;;;;;1.80;0.55;;;10.60;99.90;;;;;;4985723;28;20047;-73
2023/05/03 09:48:16;;;;;;;2.28;0.52;;;10.70;99.90;;;;;;4982223;28;20057;-73
2023/05/03 09:50:42;;;;;;;4.70;0.70;;;10.70;99.90;;;;;;4985796;28;20047;-73
2023/05/03 09:53:08;;;;;;;2.22;0.68;;;10.80;99.90;;;;;;4985603;28;20105;-73
2023/05/03 09:55:36;;;;;;;1.35;0.70;;;10.80;99.90;;;;;;4975721;28;20047;-73
2023/05/03 09:58:05;;;;;;;2.58;0.60;;;10.90;99.90;;;;;;4975041;28;20047;-73
2023/05/03 10:00:39;;;;;;;2.55;0.60;;;10.90;99.90;;;;;;4975599;28;20046;-73
2023/05/03 10:03:10;;;;;;;3.45;0.63;;;11.00;99.90;;;;;;4975752;28;20053;-73
2023/05/03 10:05:57;;;;;;;3.25;0.60;;;11.10;99.90;;;;;;4958532;28;20045;-73
2023/05/03 10:08:33;;;;;;;2.95;0.75;;;11.10;99.90;;;;;;4975609;28;20058;-73
2023/05/03 10:11:03;;;;;;;1.20;0.60;;;11.00;99.90;;;;;;4975912;28;20507;-73
2023/05/03 10:13:29;;;;;;;2.42;0.60;;;11.10;99.90;;;;;;4974610;28;20051;-72
2023/05/03 10:16:04;;;;;;;2.05;0.70;;;11.20;99.90;;;;;;4975168;28;20035;-72
2023/05/03 10:18:32;;;;;;;0.70;0.60;;;11.20;99.90;;;;;;4974771;28;20042;-73
2023/05/03 10:21:06;;;;;;;1.58;0.60;;;11.20;99.90;;;;;;4958293;28;20051;-73
2023/05/03 10:23:31;;;;;;;3.58;0.70;;;11.20;99.90;;;;;;4975328;28;20042;-72
2023/05/03 10:26:07;;;;;;;1.30;0.98;;;11.30;99.90;;;;;;4974819;28;20499;-73
2023/05/03 10:28:33;;;;;;;2.03;0.57;;;11.20;99.90;;;;;;4974124;28;20054;-73
2023/05/03 10:30:58;;;;;;;3.08;0.70;;;11.20;99.90;;;;;;4975372;28;20053;-73
2023/05/03 10:33:30;;;;;;;2.08;0.70;;;11.30;99.90;;;;;;4975208;28;20046;-73
2023/05/03 10:35:57;;;;;;;1.80;0.80;;;11.30;99.90;;;;;;4985100;28;20085;-73
2023/05/03 10:38:25;;;;;;;3.90;0.82;;;11.30;99.90;;;;;;4996780;28;20060;-73
2023/05/03 10:40:52;;;;;;;2.83;0.80;;;11.30;99.90;;;;;;5013148;28;20058;-72
2023/05/03 10:43:32;;;;;;;2.30;0.90;;;11.40;99.90;;;;;;5013009;28;20582;-73
2023/05/03 10:46:03;;;;;;;2.88;0.70;;;11.40;99.90;;;;;;5012650;28;20048;-73
2023/05/03 10:48:30;;;;;;;1.15;0.63;;;11.40;99.90;;;;;;5012275;28;20058;-73
2023/05/03 10:50:57;;;;;;;1.65;0.70;;;11.50;99.90;;;;;;4996653;28;20073;-72
2023/05/03 10:53:37;;;;;;;2.70;0.73;;;11.50;99.90;;;;;;5013409;28;20050;-73
2023/05/03 10:56:09;;;;;;;1.70;0.60;;;11.50;99.90;;;;;;5014141;28;20038;-73
2023/05/03 10:58:45;;;;;;;1.30;0.70;;;11.60;99.90;;;;;;5005016;28;20054;-74
2023/05/03 11:01:13;;;;;;;0.95;0.70;;;11.70;99.90;;;;;;4993619;28;20050;-73
2023/05/03 11:03:58;;;;;;;1.52;0.68;;;11.80;99.90;;;;;;4993718;28;20133;-73
2023/05/03 11:06:39;;;;;;;2.05;0.90;;;11.90;99.90;;;;;;4974592;28;20050;-72
2023/05/03 11:09:07;;;;;;;2.20;1.10;;;11.90;99.90;;;;;;4974636;28;20054;-73
2023/05/03 11:11:35;;;;;;;0.95;0.77;;;11.90;99.90;;;;;;4973435;28;20090;-73
2023/05/03 11:14:02;;;;;;;2.20;0.90;;;11.80;99.90;;;;;;4974540;28;20043;-73
2023/05/03 11:16:28;;;;;;;2.00;1.80;;;11.80;99.90;;;;;;4974618;28;20525;-73
2023/05/03 11:18:55;;;;;;;2.05;0.88;;;11.80;99.90;;;;;;4973746;28;20050;-73
2023/05/03 11:21:22;;;;;;;1.67;0.70;;;12.20;99.90;;;;;;4973657;28;20491;-73
2023/05/03 11:23:47;;;;;;;1.77;0.80;;;11.90;99.90;;;;;;4974144;28;20491;-73
2023/05/03 11:26:13;;;;;;;2.05;0.90;;;11.90;99.90;;;;;;4973268;28;20070;-73
2023/05/03 11:28:41;;;;;;;3.63;1.10;;;12.00;99.90;;;;;;4978681;28;20085;-73
2023/05/03 11:31:11;;;;;;;1.98;1.10;;;12.10;99.90;;;;;;4992304;28;20085;-73
2023/05/03 11:33:38;;;;;;;2.90;0.90;;;12.50;99.90;;;;;;4993526;28;20445;-73
2023/05/03 11:36:05;;;;;;;2.88;1.15;;;12.20;99.90;;;;;;4991910;28;20081;-73
2023/05/03 11:38:35;;;;;;;4.60;1.25;;;12.20;99.90;;;;;;4992573;28;20057;-71
2023/05/03 11:41:15;;;;;;;2.47;1.10;;;12.20;99.90;;;;;;5005329;28;20046;-73
2023/05/03 11:43:46;;;;;;;2.88;1.10;;;12.20;99.90;;;;;;5011794;28;20053;-73
2023/05/03 11:46:20;;;;;;;3.15;1.08;;;12.10;99.90;;;;;;5013237;28;20387;-72
2023/05/03 11:48:46;;;;;;;1.27;1.00;;;12.20;99.90;;;;;;5013391;28;20061;-73
2023/05/03 11:51:12;;;;;;;1.65;0.98;;;12.10;99.90;;;;;;5012655;28;20458;-74
2023/05/03 11:53:40;;;;;;;1.52;1.00;;;12.10;99.90;;;;;;4996315;28;20050;-73
2023/05/03 11:56:08;;;;;;;1.73;1.10;;;12.10;99.90;;;;;;5012419;28;20552;-74
2023/05/03 11:58:34;;;;;;;3.47;1.30;;;12.10;99.90;;;;;;5013571;28;20405;-74
2023/05/03 12:01:00;;;;;;;2.15;1.05;;;12.00;99.90;;;;;;5012154;28;20375;-75
2023/05/03 12:03:28;;;;;;;2.80;0.90;;;12.00;99.90;;;;;;5014300;28;20099;-74
2023/05/03 12:05:55;;;;;;;2.17;0.90;;;12.10;99.90;;;;;;5000484;28;20062;-74
2023/05/03 12:08:30;;;;;;;1.75;1.10;;;12.20;99.90;;;;;;5000440;28;20058;-74
2023/05/03 12:10:56;;;;;;;3.38;1.00;;;12.20;99.90;;;;;;5017424;28;20048;-74
2023/05/03 12:13:34;;;;;;;3.17;1.30;;;12.20;99.90;;;;;;5017109;28;20057;-74
2023/05/03 12:16:03;;;;;;;2.05;0.98;;;12.30;99.90;;;;;;5016000;28;20194;-74
2023/05/03 12:18:44;;;;;;;2.58;1.25;;;12.30;99.90;;;;;;4999466;28;20050;-73
2023/05/03 12:21:11;;;;;;;1.90;1.48;;;12.20;99.90;;;;;;5000181;28;20469;-73
2023/05/03 12:23:37;;;;;;;2.60;1.20;;;12.20;99.90;;;;;;5017194;28;20092;-73
2023/05/03 12:26:02;;;;;;;2.90;1.15;;;12.20;99.90;;;;;;5015987;28;20057;-73
2023/05/03 12:28:28;;;;;;;3.13;1.30;;;12.30;99.90;;;;;;5016181;28;20045;-72
2023/05/03 12:30:54;;;;;;;4.38;1.35;;;12.30;99.90;;;;;;5016245;28;20393;-73
2023/05/03 12:33:20;;;;;;;4.30;1.30;;;12.40;99.90;;;;;;5016180;28;20050;-72
2023/05/03 12:35:46;;;;;;;3.35;1.20;;;12.40;99.90;;;;;;5017144;28;20176;-73
2023/05/03 12:38:12;;;;;;;3.25;1.05;;;12.40;99.90;;;;;;5016943;28;20492;-72
2023/05/03 12:40:39;;;;;;;1.63;1.38;;;12.50;99.90;;;;;;4999210;28;20057;-72
2023/05/03 12:43:05;;;;;;;1.80;1.15;;;12.50;99.90;;;;;;5016576;28;20651;-72
2023/05/03 12:45:31;;;;;;;5.05;1.10;;;12.50;99.90;;;;;;5016883;28;20042;-70
2023/05/03 12:47:57;;;;;;;3.30;1.00;;;12.60;99.90;;;;;;5016523;28;20116;-72
2023/05/03 12:50:23;;;;;;;1.92;1.13;;;12.50;99.90;;;;;;4998702;28;20053;-72
2023/05/03 12:52:49;;;;;;;2.63;0.95;;;12.40;99.90;;;;;;5015703;28;20053;-72
2023/05/03 12:55:15;;;;;;;1.52;1.00;;;12.40;99.90;;;;;;5015247;28;20062;-72
2023/05/03 12:57:41;;;;;;;1.58;1.10;;;12.50;99.90;;;;;;5016700;28;20049;-72